createdAt,value
2022-12-11T00:00:39.552Z,16.65
2022-12-11T00:03:08.304Z,16.38
2022-12-11T00:05:41.701Z,18.90
2022-12-11T00:08:08.519Z,17.40
2022-12-11T00:10:37.961Z,16.42
2022-12-11T00:13:05.460Z,15.48
2022-12-11T00:15:32.224Z,17.65
2022-12-11T00:17:58.967Z,17.30
2022-12-11T00:20:25.719Z,17.10
2022-12-11T00:22:52.421Z,16.45
2022-12-11T00:25:19.129Z,16.80
2022-12-11T00:27:47.233Z,16.98
2022-12-11T00:30:14.616Z,17.08
2022-12-11T00:32:41.715Z,17.33
2022-12-11T00:35:09.233Z,17.90
2022-12-11T00:37:36.190Z,17.25
2022-12-11T00:40:03.232Z,17.45
2022-12-11T00:42:30.029Z,17.63
2022-12-11T00:44:56.729Z,17.88
2022-12-11T00:47:23.460Z,17.25
2022-12-11T00:49:50.439Z,17.30
2022-12-11T00:52:17.982Z,19.88
2022-12-11T00:54:45.265Z,17.25
2022-12-11T00:57:11.979Z,17.17
2022-12-11T00:59:38.906Z,18.23
2022-12-11T01:02:05.617Z,17.58
2022-12-11T01:04:32.346Z,17.30
2022-12-11T01:06:59.086Z,15.43
2022-12-11T01:09:44.466Z,17.02
2022-12-11T01:12:11.178Z,16.73
2022-12-11T01:14:37.947Z,16.95
2022-12-11T01:17:04.694Z,16.05
2022-12-11T01:19:31.446Z,17.88
2022-12-11T01:21:58.198Z,18.50
2022-12-11T01:24:24.905Z,16.55
2022-12-11T01:26:51.681Z,18.95
2022-12-11T01:29:18.404Z,18.42
2022-12-11T01:31:45.182Z,16.60
2022-12-11T01:34:12.331Z,19.60
2022-12-11T01:36:39.055Z,17.33
2022-12-11T01:39:05.765Z,17.98
2022-12-11T01:41:32.452Z,16.58
2022-12-11T01:44:22.427Z,17.27
2022-12-11T01:46:49.205Z,16.77
2022-12-11T01:49:18.490Z,16.50
2022-12-11T01:51:55.397Z,18.60
2022-12-11T01:54:23.727Z,16.75
2022-12-11T01:56:53.112Z,17.50
2022-12-11T01:59:24.557Z,18.13
2022-12-11T02:02:00.673Z,18.80
2022-12-11T02:04:28.756Z,17.27
2022-12-11T02:06:55.826Z,17.80
2022-12-11T02:09:34.526Z,18.30
2022-12-11T02:12:23.016Z,18.77
2022-12-11T02:15:03.171Z,18.02
2022-12-11T02:17:52.718Z,17.85
2022-12-11T02:20:24.167Z,18.20
2022-12-11T02:23:08.917Z,19.17
2022-12-11T02:26:01.501Z,17.33
2022-12-11T02:28:46.156Z,18.52
2022-12-11T02:31:58.537Z,19.23
2022-12-11T02:34:41.165Z,17.35
2022-12-11T02:37:20.133Z,17.95
2022-12-11T02:39:49.538Z,19.20
2022-12-11T02:42:18.127Z,19.02
2022-12-11T02:44:46.693Z,18.52
2022-12-11T02:47:16.505Z,18.70
2022-12-11T02:49:45.677Z,18.90
2022-12-11T02:52:15.758Z,19.00
2022-12-11T02:54:44.788Z,19.98
2022-12-11T02:57:16.666Z,18.08
2022-12-11T02:59:45.902Z,18.17
2022-12-11T03:02:15.504Z,16.20
2022-12-11T03:04:43.007Z,17.95
2022-12-11T03:07:17.690Z,18.35
2022-12-11T03:09:47.405Z,17.58
2022-12-11T03:12:31.169Z,18.05
2022-12-11T03:15:00.972Z,18.80
2022-12-11T03:17:35.274Z,16.63
2022-12-11T03:20:08.377Z,17.80
2022-12-11T03:22:53.318Z,17.88
2022-12-11T03:25:25.837Z,17.80
2022-12-11T03:28:16.118Z,17.88
2022-12-11T03:30:44.924Z,18.60
2022-12-11T03:33:18.010Z,17.27
2022-12-11T03:35:51.929Z,16.88
2022-12-11T03:38:23.751Z,19.30
2022-12-11T03:40:54.722Z,20.63
2022-12-11T03:43:22.843Z,18.63
2022-12-11T03:45:52.040Z,20.23
2022-12-11T03:48:20.801Z,20.23
2022-12-11T03:50:49.678Z,21.70
2022-12-11T03:53:18.562Z,20.55
2022-12-11T03:55:48.308Z,20.65
2022-12-11T03:58:15.744Z,20.88
2022-12-11T04:00:42.556Z,21.75
2022-12-11T04:03:15.896Z,20.70
2022-12-11T04:05:45.677Z,21.90
2022-12-11T04:08:12.656Z,22.60
2022-12-11T04:10:40.383Z,22.85
2022-12-11T04:13:08.720Z,22.65
2022-12-11T04:15:35.598Z,23.05
2022-12-11T04:18:21.190Z,22.42
2022-12-11T04:21:06.723Z,23.45
2022-12-11T04:23:52.352Z,22.60
2022-12-11T04:26:21.054Z,20.63
2022-12-11T04:28:49.285Z,23.75
2022-12-11T04:31:21.393Z,23.08
2022-12-11T04:36:15.438Z,22.48
2022-12-11T04:38:42.144Z,22.45
2022-12-11T04:41:12.127Z,22.33
2022-12-11T04:43:39.490Z,23.63
2022-12-11T04:46:15.794Z,22.75
2022-12-11T04:48:42.947Z,21.27
2022-12-11T04:51:10.288Z,22.98
2022-12-11T04:53:37.453Z,23.17
2022-12-11T04:56:09.858Z,22.92
2022-12-11T04:58:37.522Z,25.45
2022-12-11T05:01:13.115Z,24.20
2022-12-11T05:03:40.513Z,22.77
2022-12-11T05:06:08.243Z,23.33
2022-12-11T05:08:36.876Z,23.10
2022-12-11T05:11:06.383Z,21.88
2022-12-11T05:13:33.926Z,20.50
2022-12-11T05:16:00.665Z,23.15
2022-12-11T05:18:27.482Z,21.58
2022-12-11T05:21:10.053Z,24.30
2022-12-11T05:23:37.697Z,21.65
2022-12-11T05:26:12.454Z,23.88
2022-12-11T05:28:39.849Z,25.13
2022-12-11T05:31:12.804Z,23.92
2022-12-11T05:33:39.677Z,22.73
2022-12-11T05:36:07.754Z,24.02
2022-12-11T05:38:34.783Z,24.58
2022-12-11T05:41:04.089Z,23.83
2022-12-11T05:43:33.319Z,22.83
2022-12-11T05:46:10.403Z,24.05
2022-12-11T05:48:37.899Z,26.08
2022-12-11T05:51:06.110Z,22.80
2022-12-11T05:53:33.055Z,25.42
2022-12-11T05:56:12.084Z,23.95
2022-12-11T05:58:41.148Z,26.92
2022-12-11T06:01:15.074Z,24.38
2022-12-11T06:03:42.125Z,22.48
2022-12-11T06:06:08.885Z,24.42
2022-12-11T06:08:35.707Z,23.35
2022-12-11T06:11:02.944Z,22.50
2022-12-11T06:13:29.932Z,23.35
2022-12-11T06:16:01.732Z,24.80
2022-12-11T06:18:28.756Z,22.92
2022-12-11T06:20:55.571Z,22.95
2022-12-11T06:23:22.292Z,26.10
2022-12-11T06:25:49.090Z,23.83
2022-12-11T06:28:15.802Z,24.58
2022-12-11T06:30:42.471Z,25.67
2022-12-11T06:33:09.188Z,26.45
2022-12-11T06:35:41.770Z,24.30
2022-12-11T06:38:10.606Z,23.67
2022-12-11T06:40:38.117Z,21.90
2022-12-11T06:43:04.938Z,24.98
2022-12-11T06:45:31.707Z,25.45
2022-12-11T06:47:58.986Z,23.63
2022-12-11T06:50:26.067Z,23.90
2022-12-11T06:52:52.877Z,24.48
2022-12-11T06:55:19.598Z,24.65
2022-12-11T06:57:46.274Z,23.05
2022-12-11T07:00:13.870Z,24.77
2022-12-11T07:02:40.672Z,22.90
2022-12-11T07:05:07.806Z,24.42
2022-12-11T07:07:34.659Z,24.15
2022-12-11T07:10:07.634Z,22.92
2022-12-11T07:12:35.040Z,22.25
2022-12-11T07:15:01.730Z,23.33
2022-12-11T07:17:29.549Z,22.27
2022-12-11T07:19:56.373Z,22.77
2022-12-11T07:22:23.378Z,22.98
2022-12-11T07:24:50.075Z,24.15
2022-12-11T07:27:16.880Z,23.60
2022-12-11T07:29:43.570Z,24.13
2022-12-11T07:32:10.605Z,25.10
2022-12-11T07:34:37.643Z,23.60
2022-12-11T07:37:04.349Z,22.38
2022-12-11T07:39:31.052Z,23.60
2022-12-11T07:41:57.762Z,25.60
2022-12-11T07:44:27.080Z,25.92
2022-12-11T07:46:53.783Z,26.77
2022-12-11T07:49:20.546Z,25.23
2022-12-11T07:51:47.235Z,24.27
2022-12-11T07:54:16.646Z,23.27
2022-12-11T07:56:47.410Z,23.83
2022-12-11T07:59:16.857Z,23.88
2022-12-11T08:01:44.171Z,26.30
2022-12-11T08:04:15.487Z,25.17
2022-12-11T08:06:42.427Z,25.48
2022-12-11T08:09:15.970Z,24.80
2022-12-11T08:11:49.935Z,27.35
2022-12-11T08:14:16.991Z,28.13
2022-12-11T08:16:44.201Z,26.15
2022-12-11T08:19:15.375Z,25.95
2022-12-11T08:21:42.287Z,28.38
2022-12-11T08:24:09.982Z,25.30
2022-12-11T08:26:36.956Z,23.27
2022-12-11T08:29:03.923Z,23.67
2022-12-11T08:31:33.196Z,24.33
2022-12-11T08:34:00.223Z,22.92
2022-12-11T08:36:27.040Z,22.85
2022-12-11T08:38:55.446Z,22.83
2022-12-11T08:41:28.533Z,24.92
2022-12-11T08:43:57.580Z,22.15
2022-12-11T08:46:26.809Z,22.55
2022-12-11T08:48:56.776Z,21.67
2022-12-11T08:51:26.239Z,20.73
2022-12-11T08:53:56.140Z,21.00
2022-12-11T08:56:23.762Z,20.20
2022-12-11T08:58:51.144Z,20.52
2022-12-11T09:01:21.890Z,18.85
2022-12-11T09:03:49.928Z,20.70
2022-12-11T09:06:19.331Z,17.98
2022-12-11T09:08:52.271Z,19.95
2022-12-11T09:11:31.083Z,18.83
2022-12-11T09:14:03.563Z,19.13
2022-12-11T09:16:37.547Z,18.15
2022-12-11T09:19:06.010Z,17.50
2022-12-11T09:21:32.921Z,16.65
2022-12-11T09:24:01.418Z,17.80
2022-12-11T09:26:30.151Z,18.73
2022-12-11T09:28:57.061Z,17.77
2022-12-11T09:31:26.960Z,18.90
2022-12-11T09:34:03.192Z,17.70
2022-12-11T09:36:30.386Z,17.70
2022-12-11T09:39:01.175Z,19.10
2022-12-11T09:41:39.033Z,19.38
2022-12-11T09:44:19.439Z,16.55
2022-12-11T09:46:46.907Z,17.65
2022-12-11T09:49:41.394Z,16.00
2022-12-11T09:52:23.543Z,15.82
2022-12-11T09:54:56.153Z,17.15
2022-12-11T09:57:44.678Z,17.20
2022-12-11T10:00:20.640Z,17.33
2022-12-11T10:02:47.457Z,17.27
2022-12-11T10:05:26.514Z,16.63
2022-12-11T10:08:08.358Z,18.23
2022-12-11T10:10:54.580Z,15.82
2022-12-11T10:13:52.088Z,17.33
2022-12-11T10:16:27.977Z,17.83
2022-12-11T10:18:54.797Z,16.95
2022-12-11T10:21:22.264Z,16.15
2022-12-11T10:24:00.602Z,18.77
2022-12-11T10:26:29.336Z,24.25
2022-12-11T10:29:01.023Z,16.95
2022-12-11T10:31:53.437Z,17.25
2022-12-11T10:34:22.922Z,15.65
2022-12-11T10:36:49.916Z,15.63
2022-12-11T10:39:19.284Z,14.60
2022-12-11T10:41:54.093Z,13.48
2022-12-11T10:44:22.358Z,15.85
2022-12-11T10:47:03.654Z,16.95
2022-12-11T10:49:33.595Z,14.38
2022-12-11T10:52:01.925Z,13.93
2022-12-11T10:54:40.759Z,16.10
2022-12-11T10:57:10.330Z,15.90
2022-12-11T10:59:43.053Z,16.55
2022-12-11T11:02:24.729Z,16.27
2022-12-11T11:04:51.978Z,15.00
2022-12-11T11:07:23.828Z,14.60
2022-12-11T11:10:02.640Z,14.35
2022-12-11T11:12:29.422Z,15.40
2022-12-11T11:15:15.649Z,17.02
2022-12-11T11:17:54.944Z,15.07
2022-12-11T11:20:25.515Z,14.68
2022-12-11T11:23:03.429Z,14.40
2022-12-11T11:25:32.748Z,14.25
2022-12-11T11:28:15.477Z,13.23
2022-12-11T11:30:53.877Z,13.50
2022-12-11T11:33:22.661Z,14.00
2022-12-11T11:36:02.413Z,13.77
2022-12-11T11:39:12.436Z,13.98
2022-12-11T11:41:50.852Z,13.95
2022-12-11T11:44:24.801Z,12.75
2022-12-11T11:47:00.999Z,16.48
2022-12-11T11:49:41.841Z,17.73
2022-12-11T11:52:37.701Z,13.75
2022-12-11T11:55:23.462Z,14.50
2022-12-11T11:58:07.351Z,15.32
2022-12-11T12:00:34.315Z,14.10
2022-12-11T12:03:11.075Z,14.48
2022-12-11T12:05:49.891Z,14.93
2022-12-11T12:08:36.836Z,14.23
2022-12-11T12:11:27.905Z,14.13
2022-12-11T12:14:17.396Z,14.45
2022-12-11T12:17:06.166Z,14.25
2022-12-11T12:22:30.580Z,13.45
2022-12-11T12:25:16.348Z,14.25
2022-12-11T12:27:53.500Z,14.40
2022-12-11T12:30:23.352Z,12.82
2022-12-11T12:33:15.029Z,13.73
2022-12-11T12:36:07.018Z,14.15
2022-12-11T12:38:55.154Z,13.32
2022-12-11T12:41:29.456Z,13.15
2022-12-11T12:44:05.339Z,15.00
2022-12-11T12:46:46.245Z,15.60
2022-12-11T12:49:41.681Z,18.73
2022-12-11T12:52:35.199Z,18.40
2022-12-11T12:55:13.934Z,12.75
2022-12-11T12:57:45.608Z,14.70
2022-12-11T13:00:13.588Z,14.18
2022-12-11T13:02:50.811Z,12.55
2022-12-11T13:05:27.411Z,14.20
2022-12-11T13:08:05.549Z,13.52
2022-12-11T13:10:56.359Z,13.13
2022-12-11T13:13:40.209Z,14.43
2022-12-11T13:16:14.908Z,12.68
2022-12-11T13:18:43.892Z,13.20
2022-12-11T13:21:33.996Z,15.05
2022-12-11T13:24:13.052Z,14.13
2022-12-11T13:26:40.419Z,13.52
2022-12-11T13:29:27.125Z,13.93
2022-12-11T13:31:59.797Z,15.35
2022-12-11T13:34:31.349Z,12.65
2022-12-11T13:36:58.545Z,13.43
2022-12-11T13:39:30.148Z,14.73
2022-12-11T13:42:20.294Z,15.52
2022-12-11T13:44:49.138Z,15.57
2022-12-11T13:47:18.463Z,15.30
2022-12-11T13:49:50.145Z,12.55
2022-12-11T13:52:30.257Z,14.48
2022-12-11T13:54:59.213Z,16.02
2022-12-11T13:57:28.381Z,13.77
2022-12-11T13:59:57.040Z,14.45
2022-12-11T14:02:34.450Z,14.90
2022-12-11T14:05:06.365Z,14.30
2022-12-11T14:07:47.378Z,13.82
2022-12-11T14:10:21.794Z,14.23
2022-12-11T14:13:20.234Z,13.68
2022-12-11T14:15:47.158Z,13.60
2022-12-11T14:18:22.727Z,14.18
2022-12-11T14:20:58.664Z,14.20
2022-12-11T14:23:28.104Z,14.18
2022-12-11T14:25:55.844Z,13.68
2022-12-11T14:28:27.405Z,14.60
2022-12-11T14:30:59.613Z,12.55
2022-12-11T14:35:56.239Z,12.23
2022-12-11T14:38:32.718Z,13.25
2022-12-11T14:41:04.516Z,13.85
2022-12-11T14:43:40.886Z,12.50
2022-12-11T14:46:13.947Z,11.95
2022-12-11T14:48:57.545Z,13.32
2022-12-11T14:51:31.286Z,13.45
2022-12-11T14:53:58.602Z,12.82
2022-12-11T14:56:29.297Z,12.88
2022-12-11T14:59:00.441Z,14.77
2022-12-11T15:01:35.859Z,12.77
2022-12-11T15:04:26.767Z,11.93
2022-12-11T15:06:53.489Z,13.65
2022-12-11T15:09:20.202Z,13.50
2022-12-11T15:11:49.087Z,12.68
2022-12-11T15:14:18.826Z,11.20
2022-12-11T15:16:46.949Z,11.70
2022-12-11T15:19:24.862Z,12.52
2022-12-11T15:21:52.369Z,14.48
2022-12-11T15:24:44.455Z,12.48
2022-12-11T15:27:38.787Z,15.38
2022-12-11T15:30:19.976Z,14.80
2022-12-11T15:32:47.015Z,13.20
2022-12-11T15:35:24.406Z,14.85
2022-12-11T15:37:58.402Z,14.43
2022-12-11T15:40:25.684Z,14.45
2022-12-11T15:42:54.750Z,14.77
2022-12-11T15:45:24.538Z,14.60
2022-12-11T15:47:51.794Z,15.70
2022-12-11T15:50:23.618Z,15.07
2022-12-11T15:52:52.501Z,15.93
2022-12-11T15:55:20.479Z,15.88
2022-12-11T15:57:51.812Z,17.00
2022-12-11T16:00:20.211Z,15.27
2022-12-11T16:02:47.950Z,16.88
2022-12-11T16:05:15.035Z,13.20
2022-12-11T16:07:41.887Z,13.02
2022-12-11T16:10:18.035Z,13.85
2022-12-11T16:12:45.141Z,14.45
2022-12-11T16:15:16.320Z,13.00
2022-12-11T16:17:46.727Z,16.83
2022-12-11T16:20:15.279Z,14.30
2022-12-11T16:22:41.988Z,13.55
2022-12-11T16:25:08.945Z,12.82
2022-12-11T16:27:36.007Z,13.93
2022-12-11T16:30:03.463Z,13.75
2022-12-11T16:32:30.350Z,14.30
2022-12-11T16:35:01.957Z,13.15
2022-12-11T16:37:28.863Z,14.75
2022-12-11T16:39:55.711Z,16.13
2022-12-11T16:42:22.405Z,14.20
2022-12-11T16:44:49.264Z,12.57
2022-12-11T16:47:16.004Z,12.10
2022-12-11T16:49:43.319Z,12.32
2022-12-11T16:52:10.609Z,12.55
2022-12-11T16:54:37.494Z,13.43
2022-12-11T16:57:04.324Z,14.77
2022-12-11T16:59:35.280Z,15.15
2022-12-11T17:02:03.904Z,15.73
2022-12-11T17:04:30.785Z,15.50
2022-12-11T17:06:57.494Z,15.43
2022-12-11T17:09:24.288Z,15.43
2022-12-11T17:11:53.590Z,15.90
2022-12-11T17:14:20.350Z,15.13
2022-12-11T17:16:48.081Z,17.40
2022-12-11T17:19:15.657Z,18.65
2022-12-11T17:21:47.012Z,16.33
2022-12-11T17:24:17.842Z,16.38
2022-12-11T17:26:44.604Z,13.82
2022-12-11T17:29:12.132Z,13.45
2022-12-11T17:31:39.241Z,14.18
2022-12-11T17:34:06.407Z,14.02
2022-12-11T17:36:33.599Z,13.43
2022-12-11T17:39:00.608Z,13.82
2022-12-11T17:41:27.445Z,13.98
2022-12-11T17:43:55.435Z,12.70
2022-12-11T17:46:22.266Z,14.70
2022-12-11T17:48:49.082Z,14.35
2022-12-11T17:51:21.895Z,15.95
2022-12-11T17:53:48.741Z,16.10
2022-12-11T17:56:16.511Z,15.15
2022-12-11T17:58:43.652Z,16.63
2022-12-11T18:01:13.059Z,17.45
2022-12-11T18:03:40.394Z,18.27
2022-12-11T18:06:10.371Z,18.58
2022-12-11T18:08:37.200Z,16.95
2022-12-11T18:11:09.093Z,18.45
2022-12-11T18:13:36.220Z,17.35
2022-12-11T18:16:12.374Z,17.80
2022-12-11T18:18:40.149Z,19.13
2022-12-11T18:21:07.452Z,18.13
2022-12-11T18:23:34.436Z,18.88
2022-12-11T18:26:01.547Z,19.58
2022-12-11T18:28:31.899Z,20.15
2022-12-11T18:31:02.897Z,20.95
2022-12-11T18:33:30.827Z,22.50
2022-12-11T18:35:57.678Z,19.40
2022-12-11T18:38:24.438Z,22.23
2022-12-11T18:40:51.179Z,20.10
2022-12-11T18:43:17.903Z,19.38
2022-12-11T18:45:45.531Z,20.20
2022-12-11T18:48:13.407Z,20.30
2022-12-11T18:50:53.011Z,21.33
2022-12-11T18:53:21.023Z,22.58
2022-12-11T18:55:49.068Z,23.20
2022-12-11T18:58:18.136Z,21.35
2022-12-11T19:00:46.068Z,20.33
2022-12-11T19:03:14.174Z,19.73
2022-12-11T19:05:43.932Z,21.45
2022-12-11T19:08:14.141Z,20.65
2022-12-11T19:10:45.825Z,19.75
2022-12-11T19:13:13.247Z,20.88
2022-12-11T19:15:41.961Z,20.30
2022-12-11T19:18:09.448Z,21.77
2022-12-11T19:20:48.916Z,21.25
2022-12-11T19:23:16.724Z,20.17
2022-12-11T19:25:46.278Z,19.80
2022-12-11T19:28:13.958Z,18.02
2022-12-11T19:30:48.891Z,19.23
2022-12-11T19:33:16.937Z,18.80
2022-12-11T19:35:43.643Z,20.42
2022-12-11T19:38:10.665Z,21.48
2022-12-11T19:40:42.006Z,19.33
2022-12-11T19:43:09.771Z,19.45
2022-12-11T19:45:36.648Z,20.15
2022-12-11T19:48:03.467Z,21.27
2022-12-11T19:50:30.194Z,20.83
2022-12-11T19:52:57.015Z,23.05
2022-12-11T19:55:23.733Z,21.20
2022-12-11T19:57:50.503Z,22.83
2022-12-11T20:00:18.627Z,24.25
2022-12-11T20:02:45.348Z,21.15
2022-12-11T20:05:13.108Z,25.45
2022-12-11T20:07:40.260Z,22.48
2022-12-11T20:10:07.607Z,22.20
2022-12-11T20:12:34.389Z,22.27
2022-12-11T20:15:01.197Z,23.08
2022-12-11T20:17:28.062Z,21.15
2022-12-11T20:19:54.871Z,23.40
2022-12-11T20:22:22.256Z,22.20
2022-12-11T20:24:48.935Z,24.02
2022-12-11T20:27:15.625Z,22.95
2022-12-11T20:29:42.401Z,24.25
2022-12-11T20:32:11.280Z,23.00
2022-12-11T20:34:38.438Z,25.08
2022-12-11T20:37:05.210Z,20.98
2022-12-11T20:39:31.991Z,24.55
2022-12-11T20:41:58.764Z,23.92
2022-12-11T20:44:25.814Z,24.27
2022-12-11T20:46:52.571Z,23.70
2022-12-11T20:49:19.605Z,23.67
2022-12-11T20:51:46.384Z,21.88
2022-12-11T20:54:13.203Z,22.00
2022-12-11T20:56:39.986Z,22.30
2022-12-11T20:59:06.827Z,19.40
2022-12-11T21:01:34.835Z,21.15
2022-12-11T21:04:02.003Z,20.20
2022-12-11T21:06:33.822Z,21.35
2022-12-11T21:09:06.049Z,21.13
2022-12-11T21:11:32.895Z,19.92
2022-12-11T21:13:59.613Z,22.13
2022-12-11T21:16:26.797Z,20.75
2022-12-11T21:18:55.379Z,20.80
2022-12-11T21:21:22.613Z,19.05
2022-12-11T21:23:49.519Z,18.60
2022-12-11T21:26:16.472Z,20.55
2022-12-11T21:28:43.565Z,18.58
2022-12-11T21:31:14.855Z,20.45
2022-12-11T21:33:41.827Z,21.58
2022-12-11T21:36:11.641Z,20.25
2022-12-11T21:38:39.891Z,17.20
2022-12-11T21:41:09.032Z,18.35
2022-12-11T21:43:35.766Z,19.65
2022-12-11T21:46:02.735Z,21.30
2022-12-11T21:48:29.933Z,21.08
2022-12-11T21:51:24.062Z,20.50
2022-12-11T21:53:51.818Z,19.48
2022-12-11T21:56:21.443Z,18.58
2022-12-11T21:58:49.819Z,18.10
2022-12-11T22:01:30.616Z,19.00
2022-12-11T22:03:57.955Z,18.40
2022-12-11T22:06:25.010Z,21.83
2022-12-11T22:08:51.786Z,21.33
2022-12-11T22:11:26.020Z,19.10
2022-12-11T22:13:53.345Z,22.63
2022-12-11T22:16:20.545Z,20.50
2022-12-11T22:18:47.899Z,19.83
2022-12-11T22:21:14.971Z,22.42
2022-12-11T22:23:43.096Z,19.65
2022-12-11T22:26:15.673Z,20.63
2022-12-11T22:28:42.567Z,20.33
2022-12-11T22:31:14.245Z,19.88
2022-12-11T22:33:41.137Z,20.20
2022-12-11T22:36:08.318Z,19.85
2022-12-11T22:38:35.262Z,19.40
2022-12-11T22:41:09.229Z,20.95
2022-12-11T22:43:35.939Z,20.77
2022-12-11T22:46:02.705Z,22.67
2022-12-11T22:48:29.481Z,21.05
2022-12-11T22:50:57.166Z,22.13
2022-12-11T22:53:23.934Z,22.85
2022-12-11T22:55:50.646Z,21.10
2022-12-11T22:58:21.746Z,19.25
2022-12-11T23:00:48.898Z,18.75
2022-12-11T23:03:16.781Z,21.25
2022-12-11T23:05:43.678Z,19.17
2022-12-11T23:08:10.513Z,19.70
2022-12-11T23:10:40.334Z,20.02
2022-12-11T23:13:07.265Z,23.13
2022-12-11T23:15:34.595Z,21.55
2022-12-11T23:18:01.396Z,18.52
2022-12-11T23:20:28.195Z,20.70
2022-12-11T23:22:54.949Z,19.63
2022-12-11T23:25:21.772Z,22.75
2022-12-11T23:27:48.634Z,20.20
2022-12-11T23:30:15.393Z,22.95
2022-12-11T23:32:42.144Z,21.20
2022-12-11T23:35:09.120Z,21.17
2022-12-11T23:37:35.835Z,23.05
2022-12-11T23:40:04.687Z,20.20
2022-12-11T23:42:31.384Z,20.33
2022-12-11T23:44:58.102Z,20.33
2022-12-11T23:47:24.822Z,20.30
2022-12-11T23:49:51.576Z,20.42
2022-12-11T23:52:19.253Z,20.55
2022-12-11T23:54:46.367Z,21.52
2022-12-11T23:57:13.072Z,19.27
2022-12-11T23:59:40.046Z,20.42
